Petersburg, VA

7:56 PM EST on February 11, 2016 (GMT -0500)
Lakeshore Estates South Prince George | | Change Station
CLOSE
Current Station
Personal Weather Station
Location: Petersburg, VA
Elevation: 142 ft
Nearby Weather Stations

Elev 142 ft 37.18 °N, 77.34 °W | Updated 40 minutes ago

Clear
Clear
30.7 °F
Feels Like 31 °F
N
0.0
Wind Variable Wind from WNW
Gusts 0.0 mph

Today
High -- | Low -- °F
--% Chance of Precip.
Yesterday
High -- | Low -- °F
Precip. -- in
Pressure 30.26 in
Visibility 10.0 miles
Clouds Clear
Windchill 31 °F
Dew Point 1 °F
Humidity 28%
Rainfall 0.00 in
Snow Depth Not available.
7:03 AM 5:44 PM
Waxing Crescent, 16% visible
METAR KPTB 120035Z AUTO 26004KT 10SM CLR M03/M17 A3026 RMK AO2 T10331169
Pressure 30.26 in
Visibility 10.0 miles
Clouds Clear
Windchill 31 °F
Dew Point 1 °F
Humidity 28%
Rainfall 0.00 in
Snow Depth Not available.
7:03 AM 5:44 PM
Waxing Crescent, 16% visible
METAR KPTB 120035Z AUTO 26004KT 10SM CLR M03/M17 A3026 RMK AO2 T10331169

10-Day Weather Forecast

Almanac

Astronomy

Feb. 11, 2016 Rise Set
Actual Time
Civil Twilight
Nautical Twilight
Astronomical Twilight
Moon
Length of Visible Light
Length of Day
Tomorrow will be .
, % of the Moon is Illuminated

Today's Extremes

State Highs State Lows

Community

WunderPhotos

Upload Photos

1,892,195 photos uploaded!

WunderBlog® & News

Nearby

Air Quality

  Air Quality AQ Index Pollutant
Not available.

Snow Depth

Station Depth Elevation

Earthquake Activity

City Distance Mag. Time & Date
Minimum magnitude displayed is 2.5.

Coastal Water Temperatures

Place Temperature

Stations

Nearby Weather Stations

Station Location Temp. Windchill Dew Point Humidity Wind Precip. Elev Updated Type
                   

Watches & Warnings

There are currently no watches in effect.